Bei Facebook empfehlenBei Twitter postenGoogle plusPinterest

Das Wetter im Erzgebirge am 07.11.2015

Wetter und Klima am 07.11.2015 Holzhau im Erzgebirge (630m ü.NN)
Letzte gemessene Temperatur und Uhrzeit der Messung23:59:00 Uhr11.20 °C
Temperatur (Maximum / Höchstwert) und Uhrzeit der Messung14:29:00 Uhr14.60 °C
Temperatur (Minimum / Tiefstwert) und Uhrzeit der Messung01:14:008.90 °C
Errechneter Absolutwert der Temperaturschwankungen zwischen Tmin und Tmax des Tages5.70 K
Errechnete Tagesmitteltemperatur11.64688 °C
Gesamt - Niederschlag des Tages (in flüssiger Form)8.80 Liter / m²
Luftdruck (Maximum / Höchstwert) und Zeitpunkt der Messung18:14:00 Uhr1022.00 hPa
Luftdruck (Minimum / Tiefstwert) und Zeitpunkt der Messung05:59:00 Uhr1018.10 hPa
Errechneter Absolutwert der Luftdruckschwankungen des Tages3.90 hPa
Höchste gemessene Windgeschwindigkeit und Uhrzeit der Messung10:44:00 Uhr10.44 km/h
Errechnete Windhäufigkeit in Relation zu den Messwerten des Tages13.54167 %
Niedrigste Windkühle (Windchill) und Zeitpunkt der Messung00:29:00 Uhr8.50 °C
Taupunkt (Maximum / Höchstwert) und Uhrzeit der Messung14:29:00 Uhr14.00 °C
Taupunkt (Minimum / Tiefstwert) und Uhrzeit der Messung01:14:007.20 °C
Anzahl der automatisch eingelesenen Messwerte 96

Detaillierte Wetter- und Klima- Messwerte für den 07.11.2015 in Holzhau im Erzgebirge (630m ü.NN)
ZeitTemperaturLuftdruckRel. LuftfeuchteWindWindrichtungWindchillTaupunktNiederschlag l/m²
23:59:0011.20 °C1020.60 hPa96.00 %10.60 °C8.80
23:44:0010.90 °C1020.70 hPa96.00 %10.30 °C8.80
23:29:0010.90 °C1021.00 hPa96.00 %10.30 °C8.80
23:14:0010.80 °C1020.60 hPa96.00 %10.20 °C8.80
22:59:0010.40 °C1020.60 hPa96.00 %9.80 °C8.80
22:44:0010.10 °C1020.80 hPa96.00 %9.50 °C8.80
22:29:0010.10 °C1021.00 hPa96.00 %9.50 °C8.80
22:14:0010.20 °C1020.80 hPa96.00 %9.60 °C8.80
21:59:0010.40 °C1021.00 hPa95.00 %9.60 °C8.80
21:44:0010.70 °C1020.90 hPa95.00 %9.90 °C8.80
21:29:0010.90 °C1020.90 hPa95.00 %10.10 °C8.80
21:14:0011.00 °C1021.10 hPa95.00 %10.20 °C8.80
20:59:0011.10 °C1020.70 hPa95.00 %10.30 °C8.80
20:44:0011.10 °C1020.70 hPa95.00 %10.30 °C8.80
20:29:0011.10 °C1020.80 hPa95.00 %10.30 °C8.80
20:14:0011.30 °C1021.10 hPa96.00 %10.70 °C8.80
19:59:0011.10 °C1020.70 hPa95.00 %2.88 km/hOSO11.10 °C10.30 °C8.80
19:44:0011.20 °C1020.80 hPa95.00 %10.40 °C8.80
19:29:0011.30 °C1021.40 hPa96.00 %10.70 °C8.80
19:14:0011.30 °C1021.50 hPa96.00 %10.70 °C8.80
18:59:0011.40 °C1021.60 hPa96.00 %10.80 °C8.80
18:44:0011.60 °C1021.70 hPa96.00 %11.00 °C8.80
18:29:0011.50 °C1021.90 hPa96.00 %10.90 °C8.80
18:14:0010.90 °C1022.00 hPa95.00 %10.10 °C8.80
17:59:0011.10 °C1021.90 hPa95.00 %10.30 °C8.80
17:44:0011.30 °C1021.30 hPa95.00 %10.50 °C8.80
17:29:0011.30 °C1021.50 hPa95.00 %10.50 °C8.80
17:14:0011.50 °C1021.50 hPa95.00 %10.70 °C8.80
16:59:0011.80 °C1021.40 hPa95.00 %11.00 °C8.80
16:44:0012.10 °C1021.50 hPa95.00 %11.30 °C8.80
16:29:0012.50 °C1021.40 hPa95.00 %11.70 °C8.80
16:14:0012.50 °C1021.60 hPa95.00 %11.70 °C8.80
15:59:0012.90 °C1021.60 hPa95.00 %12.10 °C8.80
15:44:0013.30 °C1021.70 hPa95.00 %12.50 °C8.80
15:29:0013.80 °C1021.60 hPa96.00 %13.20 °C8.80
15:14:0014.10 °C1021.60 hPa96.00 %13.50 °C8.80
14:59:0014.50 °C1021.70 hPa96.00 %13.90 °C8.80
14:44:0014.40 °C1021.60 hPa96.00 %13.80 °C8.80
14:29:0014.60 °C1021.50 hPa96.00 %14.00 °C8.80
14:14:0014.10 °C1021.60 hPa96.00 %13.50 °C8.80
13:59:0013.90 °C1021.60 hPa96.00 %13.30 °C8.80
13:44:0014.10 °C1021.20 hPa96.00 %13.50 °C8.80
13:29:0014.10 °C1021.30 hPa96.00 %13.50 °C8.80
13:14:0014.10 °C1021.60 hPa96.00 %13.50 °C8.80
12:59:0013.90 °C1021.30 hPa96.00 %13.30 °C8.80
12:44:0013.60 °C1021.20 hPa96.00 %13.00 °C8.80
12:29:0013.50 °C1021.20 hPa96.00 %12.90 °C8.80
12:14:0013.50 °C1021.40 hPa96.00 %12.90 °C8.80
11:59:0013.30 °C1021.30 hPa96.00 %2.52 km/hNNW13.30 °C12.70 °C8.80
11:44:0013.30 °C1021.30 hPa96.00 %12.70 °C8.80
11:29:0013.20 °C1021.30 hPa96.00 %3.24 km/hWNW13.20 °C12.60 °C8.80
11:14:0013.10 °C1021.10 hPa95.00 %6.48 km/hWSW12.90 °C12.30 °C8.80
10:59:0013.00 °C1021.00 hPa95.00 %12.20 °C8.80
10:44:0012.90 °C1020.90 hPa95.00 %10.44 km/hW12.00 °C12.10 °C8.80
10:29:0012.90 °C1020.70 hPa95.00 %2.16 km/hWNW12.90 °C12.10 °C7.77
10:14:0012.90 °C1020.80 hPa95.00 %1.80 km/hNW12.90 °C12.10 °C7.77
09:59:0012.80 °C1020.60 hPa95.00 %12.00 °C7.77
09:44:0012.80 °C1020.60 hPa95.00 %12.00 °C7.25
09:29:0012.70 °C1020.50 hPa95.00 %11.90 °C6.73
09:14:0012.60 °C1020.30 hPa95.00 %11.80 °C6.21
08:59:0012.50 °C1020.10 hPa95.00 %11.70 °C6.21
08:44:0012.50 °C1019.80 hPa95.00 %11.70 °C6.21
08:29:0012.50 °C1019.90 hPa95.00 %5.76 km/hW12.40 °C11.70 °C5.70
08:14:0012.40 °C1019.70 hPa94.00 %11.50 °C5.18
07:59:0012.40 °C1019.60 hPa94.00 %11.50 °C5.18
07:44:0012.40 °C1019.30 hPa94.00 %6.48 km/hWNW12.10 °C11.50 °C4.66
07:29:0012.20 °C1019.30 hPa94.00 %11.30 °C4.66
07:14:0012.10 °C1019.10 hPa94.00 %11.20 °C4.66
06:59:0011.90 °C1018.70 hPa93.00 %10.80 °C4.66
06:44:0011.60 °C1018.90 hPa93.00 %10.50 °C4.66
06:29:0011.40 °C1018.60 hPa93.00 %3.60 km/hW11.40 °C10.30 °C4.14
06:14:0011.30 °C1018.30 hPa93.00 %10.20 °C3.62
05:59:0011.10 °C1018.10 hPa93.00 %10.00 °C2.07
05:44:0010.90 °C1018.30 hPa93.00 %9.80 °C1.55
05:29:0010.60 °C1018.30 hPa92.00 %9.40 °C1.55
05:14:0010.40 °C1018.30 hPa92.00 %9.20 °C1.55
04:59:0010.20 °C1018.30 hPa92.00 %9.00 °C1.55
04:44:0010.10 °C1018.30 hPa91.00 %8.70 °C1.03
04:29:0010.10 °C1018.40 hPa91.00 %8.70 °C0.52
04:14:009.90 °C1018.40 hPa91.00 %8.50 °C0.52
03:59:009.90 °C1018.50 hPa91.00 %8.50 °C0.52
03:44:0010.10 °C1018.50 hPa90.00 %8.50 °C0.52
03:29:0010.00 °C1018.70 hPa90.00 %8.40 °C 
03:14:009.60 °C1018.70 hPa90.00 %8.00 °C 
02:59:009.80 °C1018.70 hPa90.00 %8.20 °C 
02:44:0010.00 °C1018.60 hPa90.00 %8.40 °C 
02:29:0010.10 °C1018.80 hPa90.00 %8.50 °C 
02:14:009.90 °C1018.70 hPa90.00 %8.30 °C 
01:59:009.90 °C1018.80 hPa90.00 %5.76 km/hSW9.40 °C8.30 °C 
01:44:009.50 °C1018.70 hPa90.00 %2.88 km/hSW9.50 °C7.90 °C 
01:29:009.00 °C1018.80 hPa90.00 %7.50 °C 
01:14:008.90 °C1019.00 hPa89.00 %7.20 °C 
00:59:009.30 °C1018.90 hPa89.00 %7.60 °C 
00:44:009.80 °C1019.00 hPa90.00 %8.20 °C 
00:29:009.70 °C1019.30 hPa90.00 %8.64 km/hSW8.50 °C8.10 °C 
00:14:009.60 °C1019.40 hPa89.00 %7.90 °C 

Permanenter Link zu dieser Seite: Wetter im Erzgebirge am 07.11.2015
Performance-Info: Die Erstellung der Seite / Statistik(en) / Tabelle(n) erforderte 5 Datenbankserver-Abfrage(n) und dauerte 115 Millisekunden. (Dieser Messwert ist von der Gesamt-Auslastung des Servers abhängig.)
Erzgebirge - Wetter | Erzgebirge - Wetter (Mobilgeräte) | Komplette Klimadatenbank